Time;durP1;ratioP1;P1;durP2;ratioP2;P2;SDS_P1;SDS_P2;PMS_P1;PMS_P2;Temp;Humidity;BMP_temperature;BMP_pressure;BME280_temperature;BME280_humidity;BME280_pressure;Samples;Min_cycle;Max_cycle;Signal;HPM_P1;HPM_P2
2022/06/09 00:00:49;;;;;;;22.23;14.32;;;;;;;22.88;60.00;97783.56;4487835;31;20345;-80
2022/06/09 00:03:18;;;;;;;21.55;13.65;;;;;;;22.86;60.10;97788.28;4486667;32;20108;-80
2022/06/09 00:05:43;;;;;;;19.73;12.77;;;;;;;22.85;60.21;97785.78;4487743;31;20092;-80
2022/06/09 00:08:09;;;;;;;20.33;13.07;;;;;;;22.83;60.25;97782.47;4486903;32;20076;-80
2022/06/09 00:10:39;;;;;;;20.25;13.35;;;;;;;22.84;60.15;97782.28;4486619;32;20169;-80
2022/06/09 00:13:05;;;;;;;20.37;13.77;;;;;;;22.80;60.24;97782.84;4487338;31;20088;-80
2022/06/09 00:15:30;;;;;;;20.88;14.45;;;;;;;22.77;60.37;97782.22;4486929;32;20114;-81
2022/06/09 00:17:56;;;;;;;21.08;14.02;;;;;;;22.78;60.47;97778.47;4486915;31;20114;-80
2022/06/09 00:20:22;;;;;;;21.60;14.20;;;;;;;22.82;60.48;97778.94;4486997;31;20447;-80
2022/06/09 00:22:48;;;;;;;21.50;14.00;;;;;;;22.80;60.56;97780.16;4486681;31;20150;-80
2022/06/09 00:25:14;;;;;;;23.20;14.23;;;;;;;22.76;60.67;97779.69;4487038;31;20088;-80
2022/06/09 00:27:40;;;;;;;20.37;13.85;;;;;;;22.78;60.68;97780.34;4485734;32;20076;-80
2022/06/09 00:30:08;;;;;;;19.83;13.07;;;;;;;22.75;60.74;97773.50;4486799;31;20139;-80
2022/06/09 00:32:34;;;;;;;21.23;13.57;;;;;;;22.76;60.74;97777.00;4485704;32;20127;-80
2022/06/09 00:34:59;;;;;;;20.10;13.55;;;;;;;22.77;60.68;97763.41;4486770;31;20088;-80
2022/06/09 00:37:25;;;;;;;21.35;14.02;;;;;;;22.76;60.73;97764.41;4486833;31;20080;-80
2022/06/09 00:39:50;;;;;;;21.08;13.40;;;;;;;22.75;60.81;97768.13;4485937;32;20121;-80
2022/06/09 00:42:16;;;;;;;23.15;13.88;;;;;;;22.76;60.81;97767.09;4487045;31;20115;-80
2022/06/09 00:44:43;;;;;;;20.58;13.77;;;;;;;22.77;60.89;97768.78;4487030;31;20119;-80
2022/06/09 00:47:19;;;;;;;22.15;13.55;;;;;;;22.76;60.96;97777.84;4485856;32;20435;-80
2022/06/09 00:49:54;;;;;;;17.70;12.23;;;;;;;22.77;61.09;97776.84;4485729;32;20119;-80
2022/06/09 00:52:21;;;;;;;20.77;13.27;;;;;;;22.81;61.07;97776.44;4485785;32;20388;-80
2022/06/09 00:54:49;;;;;;;20.70;13.80;;;;;;;22.82;61.07;97780.81;4486933;31;20110;-80
2022/06/09 00:57:21;;;;;;;20.62;12.18;;;;;;;22.83;61.09;97775.25;4485628;32;20105;-80
2022/06/09 00:59:51;;;;;;;23.33;13.05;;;;;;;22.85;61.12;97775.91;4485662;32;20445;-79
2022/06/09 01:02:19;;;;;;;21.65;13.38;;;;;;;22.85;61.32;97775.91;4485685;32;20172;-80
2022/06/09 01:04:45;;;;;;;;;;;;;;;22.83;61.50;97769.03;4485921;32;20449;-80
2022/06/09 01:07:14;;;;;;;18.45;12.88;;;;;;;22.93;61.41;97773.09;4485637;32;19976;-80
2022/06/09 01:09:39;;;;;;;20.00;11.90;;;;;;;22.91;61.52;97768.94;4485417;32;20135;-80
2022/06/09 01:12:25;;;;;;;20.37;12.82;;;;;;;22.90;61.66;97776.16;4485151;32;20470;-80
2022/06/09 01:14:53;;;;;;;19.00;12.63;;;;;;;22.96;61.65;97769.19;4466586;32;20093;-80
2022/06/09 01:17:55;;;;;;;20.80;13.00;;;;;;;22.97;61.19;97769.03;4487404;31;20118;-80
2022/06/09 01:20:26;;;;;;;20.65;13.75;;;;;;;22.92;60.77;97765.22;4486295;32;20093;-80
2022/06/09 01:22:51;;;;;;;18.23;12.00;;;;;;;22.83;60.89;97755.59;4472994;32;20096;-80
2022/06/09 01:25:23;;;;;;;18.87;12.05;;;;;;;22.84;60.96;97757.28;4487365;31;20076;-80
2022/06/09 01:28:06;;;;;;;20.42;12.93;;;;;;;22.86;61.19;97761.44;4487404;32;20084;-80
2022/06/09 01:30:49;;;;;;;21.65;13.88;;;;;;;22.87;61.32;97757.75;4487347;32;20114;-80
2022/06/09 01:33:44;;;;;;;20.65;14.55;;;;;;;22.87;61.60;97752.37;4473053;32;20153;-80
2022/06/09 01:36:09;;;;;;;23.20;16.15;;;;;;;22.90;61.72;97751.97;4486008;32;20383;-80
2022/06/09 01:38:49;;;;;;;28.92;16.17;;;;;;;22.91;61.80;97750.97;4487369;31;20077;-80
2022/06/09 01:41:15;;;;;;;25.50;16.70;;;;;;;22.96;61.75;97759.28;4486101;32;20136;-80
2022/06/09 01:43:42;;;;;;;27.02;17.92;;;;;;;22.96;61.72;97750.41;4487280;31;20118;-80
2022/06/09 01:46:13;;;;;;;29.85;18.77;;;;;;;22.96;61.70;97745.84;4486058;32;20428;-80
2022/06/09 01:48:39;;;;;;;28.38;17.77;;;;;;;22.95;61.69;97746.91;4486269;32;20396;-80
2022/06/09 01:51:13;;;;;;;27.77;17.20;;;;;;;22.97;61.65;97747.53;4486185;32;20153;-79
2022/06/09 01:53:45;;;;;;;25.10;16.75;;;;;;;23.02;61.63;97746.13;4486395;32;20110;-79
2022/06/09 01:56:19;;;;;;;22.65;15.13;;;;;;;23.03;61.62;97743.28;4486134;32;20084;-80
2022/06/09 01:58:57;;;;;;;19.12;13.45;;;;;;;23.04;61.74;97754.88;4485947;32;20064;-80
2022/06/09 02:01:30;;;;;;;18.98;13.75;;;;;;;23.07;61.31;97744.59;4485984;32;20116;-80
2022/06/09 02:03:57;;;;;;;22.15;15.45;;;;;;;23.06;60.96;97745.59;4472796;32;20110;-80
2022/06/09 02:06:23;;;;;;;21.77;13.90;;;;;;;23.06;60.44;97745.59;4485912;32;20088;-80
2022/06/09 02:08:48;;;;;;;19.95;13.80;;;;;;;23.05;60.01;97743.13;4485810;32;20133;-79
2022/06/09 02:11:14;;;;;;;20.58;14.07;;;;;;;23.04;60.08;97744.94;4472653;32;20108;-80
2022/06/09 02:13:42;;;;;;;19.70;13.57;;;;;;;22.99;60.42;97757.28;4486818;32;20084;-78
2022/06/09 02:16:12;;;;;;;20.65;13.48;;;;;;;22.93;60.90;97751.63;4485945;32;20524;-80
2022/06/09 02:18:41;;;;;;;20.73;13.57;;;;;;;22.95;61.14;97754.94;4486055;32;20114;-80
2022/06/09 02:21:16;;;;;;;19.27;13.43;;;;;;;22.95;61.38;97754.13;4486127;32;20165;-80
2022/06/09 02:23:41;;;;;;;20.15;12.65;;;;;;;22.99;61.44;97749.22;4487227;31;20075;-79
2022/06/09 02:26:07;;;;;;;20.27;12.52;;;;;;;22.97;61.47;97752.91;4487116;31;20338;-80
2022/06/09 02:28:33;;;;;;;19.40;12.50;;;;;;;23.04;61.34;97757.56;4485934;32;20393;-80
2022/06/09 02:30:59;;;;;;;18.42;12.70;;;;;;;23.06;61.23;97761.72;4486998;31;20122;-80
2022/06/09 02:33:24;;;;;;;19.50;12.40;;;;;;;23.07;61.14;97757.19;4487053;31;20369;-80
2022/06/09 02:35:50;;;;;;;19.80;13.02;;;;;;;23.10;61.06;97746.03;4487049;31;20487;-80
2022/06/09 02:38:16;;;;;;;21.08;13.43;;;;;;;23.15;60.97;97751.69;4485553;32;20144;-80
2022/06/09 02:40:42;;;;;;;22.20;14.23;;;;;;;23.12;60.95;97746.69;4486994;31;20089;-80
2022/06/09 02:43:08;;;;;;;20.17;13.18;;;;;;;23.12;60.97;97749.38;4486919;31;20107;-80
2022/06/09 02:45:33;;;;;;;18.75;12.82;;;;;;;23.16;60.74;97758.75;4485626;32;20088;-80
2022/06/09 02:48:00;;;;;;;20.10;13.18;;;;;;;23.19;60.67;97760.22;4485746;32;20065;-80
2022/06/09 02:50:26;;;;;;;21.60;13.45;;;;;;;23.20;60.60;97767.25;4485641;32;20096;-80
2022/06/09 02:52:51;;;;;;;21.52;14.32;;;;;;;23.21;60.12;97763.53;4485266;32;20460;-80
2022/06/09 02:55:17;;;;;;;23.20;13.55;;;;;;;23.21;59.61;97769.75;4486523;31;20081;-80
2022/06/09 02:57:42;;;;;;;21.50;14.15;;;;;;;23.19;59.72;97769.09;4485233;32;20106;-80
2022/06/09 03:00:11;;;;;;;26.33;15.88;;;;;;;23.24;59.89;97780.12;4486530;31;20072;-80
2022/06/09 03:02:38;;;;;;;24.80;15.77;;;;;;;23.23;60.30;97766.88;4485365;32;20096;-80
2022/06/09 03:05:04;;;;;;;25.05;17.08;;;;;;;23.27;60.61;97765.47;4486601;31;20435;-80
2022/06/09 03:07:29;;;;;;;27.27;17.42;;;;;;;23.26;60.82;97759.25;4486313;31;20077;-81
2022/06/09 03:09:55;;;;;;;24.77;16.33;;;;;;;23.26;60.94;97761.13;4486233;32;20080;-80
2022/06/09 03:12:21;;;;;;;26.00;16.70;;;;;;;23.27;60.98;97763.59;4486084;31;20114;-80
2022/06/09 03:14:47;;;;;;;27.65;17.75;;;;;;;23.30;60.98;97765.91;4485247;32;20076;-81
2022/06/09 03:17:12;;;;;;;27.37;17.15;;;;;;;23.33;60.99;97767.37;4485347;32;20085;-81
2022/06/09 03:19:38;;;;;;;24.63;16.70;;;;;;;23.41;60.86;97764.59;4485011;32;20127;-80
2022/06/09 03:22:04;;;;;;;23.62;15.70;;;;;;;23.42;60.72;97765.44;4486179;32;20114;-81
2022/06/09 03:24:29;;;;;;;24.73;15.38;;;;;;;23.45;60.51;97762.34;4486306;32;20340;-81
2022/06/09 03:26:55;;;;;;;20.17;13.57;;;;;;;23.44;60.46;97764.22;4486251;31;20072;-81
2022/06/09 03:29:20;;;;;;;23.02;15.75;;;;;;;23.54;59.77;97767.41;4484900;32;20124;-81
2022/06/09 03:31:46;;;;;;;25.45;17.12;;;;;;;23.54;59.52;97761.19;4486304;31;20084;-80
2022/06/09 03:34:13;;;;;;;26.40;16.17;;;;;;;23.51;59.68;97758.91;4486242;31;20110;-80
2022/06/09 03:36:38;;;;;;;24.52;15.65;;;;;;;23.52;59.93;97758.69;4485053;32;20155;-81
2022/06/09 03:39:04;;;;;;;25.80;15.95;;;;;;;23.67;59.75;97752.44;4486202;31;20421;-81
2022/06/09 03:41:29;;;;;;;23.12;15.38;;;;;;;23.74;59.42;97750.66;4484800;32;20486;-81
2022/06/09 03:43:55;;;;;;;24.90;15.25;;;;;;;23.78;59.32;97753.75;4486103;32;20085;-81
2022/06/09 03:46:20;;;;;;;24.70;16.60;;;;;;;23.92;59.05;97755.59;4485980;31;20080;-80
2022/06/09 03:48:46;;;;;;;24.40;16.33;;;;;;;24.10;58.36;97755.09;4485867;31;20126;-79
2022/06/09 03:51:12;;;;;;;24.17;16.23;;;;;;;24.16;58.09;97765.06;4484764;32;20458;-80
2022/06/09 03:53:39;;;;;;;23.83;16.05;;;;;;;24.21;57.92;97764.50;4485846;31;20099;-80
2022/06/09 03:56:07;;;;;;;25.00;15.55;;;;;;;24.34;57.72;97768.13;4484816;32;20103;-80
2022/06/09 03:58:32;;;;;;;26.65;16.27;;;;;;;24.52;57.35;97764.12;4486014;32;20204;-80
2022/06/09 04:00:57;;;;;;;24.45;16.35;;;;;;;24.63;56.93;97762.75;4488187;31;20084;-80
2022/06/09 04:03:23;;;;;;;25.33;16.00;;;;;;;24.82;56.68;97758.47;4488114;32;20107;-80
2022/06/09 04:05:48;;;;;;;24.27;16.67;;;;;;;25.03;55.88;97757.53;4486827;32;20075;-80
2022/06/09 04:08:14;;;;;;;24.42;16.00;;;;;;;25.19;55.67;97749.09;4487951;31;20411;-80
2022/06/09 04:10:39;;;;;;;24.58;15.68;;;;;;;25.37;55.31;97750.41;4487864;32;20117;-80
2022/06/09 04:13:05;;;;;;;25.15;16.50;;;;;;;25.62;54.75;97748.81;4487638;32;20108;-81
2022/06/09 04:15:30;;;;;;;21.40;14.93;;;;;;;25.96;53.68;97752.41;4488057;31;20084;-80
2022/06/09 04:17:56;;;;;;;21.10;13.07;;;;;;;26.07;53.29;97748.22;4488038;31;20085;-78
2022/06/09 04:20:25;;;;;;;17.75;11.32;;;;;;;26.29;52.85;97755.06;4488078;31;20420;-80
2022/06/09 04:22:51;;;;;;;17.35;10.70;;;;;;;26.58;51.87;97752.09;4486991;32;20641;-80
2022/06/09 04:25:17;;;;;;;16.95;11.55;;;;;;;26.71;51.48;97754.78;4488053;31;20348;-79
2022/06/09 04:27:43;;;;;;;18.12;12.02;;;;;;;26.71;51.44;97752.09;4486932;32;20170;-79
2022/06/09 04:30:09;;;;;;;17.02;11.68;;;;;;;26.73;51.10;97751.87;4487895;31;20428;-80
2022/06/09 04:32:35;;;;;;;17.58;11.45;;;;;;;26.69;51.03;97751.47;4487938;31;20107;-80
2022/06/09 04:35:00;;;;;;;18.42;11.60;;;;;;;26.70;51.00;97761.25;4486674;32;20134;-80
2022/06/09 04:37:59;;;;;;;17.52;11.88;;;;;;;26.71;51.04;97765.59;4487915;31;20080;-78
2022/06/09 04:40:11;;;;;;;16.85;11.20;;;;;;;26.86;50.83;97774.28;4487611;32;20130;-80
2022/06/09 04:42:37;;;;;;;15.00;10.02;;;;;;;27.05;50.56;97771.72;4487673;31;20092;-80
2022/06/09 04:45:03;;;;;;;16.60;10.60;;;;;;;27.31;49.20;97775.37;4487544;31;20076;-80
2022/06/09 04:47:28;;;;;;;16.87;10.65;;;;;;;27.34;47.78;97778.47;4477831;32;20127;-79
2022/06/09 04:49:54;;;;;;;17.80;11.30;;;;;;;27.20;48.07;97780.38;4499307;31;20089;-79
2022/06/09 04:52:19;;;;;;;17.77;11.73;;;;;;;27.17;48.22;97780.81;4503302;31;20114;-79
2022/06/09 04:54:45;;;;;;;17.33;11.52;;;;;;;27.24;48.43;97780.78;4502267;31;20166;-80
2022/06/09 04:57:10;;;;;;;18.10;11.45;;;;;;;27.30;48.12;97781.84;4488339;31;20135;-80
2022/06/09 04:59:36;;;;;;;19.33;12.13;;;;;;;27.31;48.33;97781.59;4502470;31;20106;-80
2022/06/09 05:02:01;;;;;;;17.85;11.35;;;;;;;27.53;48.30;97790.25;4503124;31;20435;-80
2022/06/09 05:04:26;;;;;;;19.10;12.68;;;;;;;27.83;47.68;97786.91;4503445;31;20329;-80
2022/06/09 05:06:52;;;;;;;18.33;12.75;;;;;;;27.94;47.25;97791.66;4503172;31;20084;-80
2022/06/09 05:09:18;;;;;;;20.70;12.45;;;;;;;28.00;46.23;97788.06;4502191;31;20080;-81
2022/06/09 05:11:43;;;;;;;18.05;12.82;;;;;;;28.02;46.16;97790.56;4503462;31;20120;-81
2022/06/09 05:14:09;;;;;;;19.05;12.75;;;;;;;28.01;45.87;97786.22;4503203;31;20151;-81
2022/06/09 05:16:35;;;;;;;18.55;13.07;;;;;;;27.92;46.05;97785.63;4488752;31;20134;-80
2022/06/09 05:19:00;;;;;;;20.85;12.50;;;;;;;27.84;46.20;97792.13;4503182;31;20459;-80
2022/06/09 05:21:26;;;;;;;22.02;13.48;;;;;;;27.80;46.54;97790.06;4503082;31;20092;-80
2022/06/09 05:23:51;;;;;;;22.50;13.15;;;;;;;27.72;46.53;97795.72;4503145;31;20083;-80
2022/06/09 05:26:17;;;;;;;18.45;12.65;;;;;;;27.65;46.72;97795.78;4502948;31;20100;-80
2022/06/09 05:28:42;;;;;;;19.70;13.38;;;;;;;27.63;47.26;97808.69;4488669;31;20088;-80
2022/06/09 05:31:08;;;;;;;20.52;14.07;;;;;;;27.67;47.28;97795.56;4486004;31;20136;-79
2022/06/09 05:33:33;;;;;;;21.20;14.27;;;;;;;27.76;46.71;97803.22;4488529;31;20096;-79
2022/06/09 05:35:59;;;;;;;20.48;14.15;;;;;;;27.76;46.82;97805.09;4503009;31;20084;-80
2022/06/09 05:46:42;;;;;;;20.17;14.07;;;;;;;28.60;45.06;97811.94;4503111;31;20138;-80
2022/06/09 05:49:09;;;;;;;18.60;12.35;;;;;;;28.73;45.01;97812.87;4502964;31;20104;-80
2022/06/09 05:51:35;;;;;;;17.80;12.10;;;;;;;29.06;44.46;97806.25;4502830;31;20155;-79
2022/06/09 05:54:01;;;;;;;17.65;11.65;;;;;;;29.25;43.96;97812.53;4488618;31;20084;-80
2022/06/09 05:56:26;;;;;;;20.12;12.50;;;;;;;29.14;43.81;97814.94;4488626;31;20471;-81
2022/06/09 05:58:52;;;;;;;16.42;11.20;;;;;;;28.96;43.22;97821.16;4488838;31;20091;-79
2022/06/09 06:01:17;;;;;;;16.52;11.43;;;;;;;28.71;43.40;97815.00;4503182;31;20111;-78
2022/06/09 06:03:43;;;;;;;17.27;11.38;;;;;;;28.54;44.02;97820.97;4502941;31;20080;-78
2022/06/09 06:08:53;;;;;;;20.02;13.13;;;;;;;28.35;44.04;97825.47;4502912;31;20465;-78
2022/06/09 06:11:19;;;;;;;19.83;12.32;;;;;;;28.26;44.47;97825.97;4502746;31;20099;-78
2022/06/09 06:13:45;;;;;;;17.58;12.10;;;;;;;28.25;44.33;97822.44;4488255;31;20332;-79
2022/06/09 06:16:10;;;;;;;18.02;9.75;;;;;;;28.10;44.76;97820.06;4502623;31;20717;-79
2022/06/09 06:18:35;;;;;;;15.75;9.18;;;;;;;28.08;44.52;97829.47;4502765;31;20133;-78
2022/06/09 06:21:01;;;;;;;16.55;9.82;;;;;;;27.84;45.05;97824.59;4487856;31;20111;-77
2022/06/09 06:23:27;;;;;;;16.05;9.43;;;;;;;27.80;45.24;97830.66;4502582;31;20106;-78
2022/06/09 06:25:54;;;;;;;14.73;9.00;;;;;;;27.79;45.33;97832.53;4488498;31;20378;-80
2022/06/09 06:28:20;;;;;;;16.35;9.48;;;;;;;27.80;45.43;97839.62;4488556;31;20108;-77
2022/06/09 06:30:46;;;;;;;18.75;10.23;;;;;;;27.84;45.56;97838.13;4501400;31;20750;-74
2022/06/09 06:33:11;;;;;;;14.70;8.90;;;;;;;27.85;45.91;97831.69;4499413;31;20150;-77
2022/06/09 06:35:37;;;;;;;11.90;7.07;;;;;;;27.89;45.96;97833.97;4499231;31;20395;-77
2022/06/09 06:38:03;;;;;;;12.02;6.45;;;;;;;27.85;44.75;97838.94;4499348;31;20482;-77
2022/06/09 06:40:28;;;;;;;10.30;5.72;;;;;;;27.74;44.56;97834.22;4499247;31;20110;-78
2022/06/09 06:42:53;;;;;;;14.90;6.07;;;;;;;27.73;44.71;97829.88;4499275;31;20088;-79
2022/06/09 06:45:19;;;;;;;10.60;5.72;;;;;;;27.54;45.10;97832.47;4484955;31;20108;-79
2022/06/09 06:47:45;;;;;;;10.27;5.53;;;;;;;27.48;45.33;97830.63;4499237;31;20116;-79
2022/06/09 06:50:12;;;;;;;12.75;6.07;;;;;;;27.48;45.40;97827.91;4484561;31;20153;-79
2022/06/09 06:52:38;;;;;;;9.82;5.10;;;;;;;27.46;45.30;97841.66;4487670;31;20122;-80
2022/06/09 06:55:05;;;;;;;10.13;5.10;;;;;;;27.44;45.54;97830.22;4486962;31;20471;-79
2022/06/09 06:57:30;;;;;;;;;;;;;;;27.38;44.98;97833.78;4484936;31;20125;-78
2022/06/09 06:59:58;;;;;;;9.73;4.62;;;;;;;27.54;45.12;97832.47;4499311;31;19988;-79
2022/06/09 07:02:23;;;;;;;9.07;4.00;;;;;;;27.63;45.41;97836.59;4499235;31;20096;-79
2022/06/09 07:04:49;;;;;;;9.52;3.58;;;;;;;27.63;45.13;97842.00;4499082;31;20087;-79
2022/06/09 07:07:14;;;;;;;10.45;4.07;;;;;;;27.77;44.33;97840.03;4484422;31;20093;-79
2022/06/09 07:09:40;;;;;;;8.77;4.10;;;;;;;27.87;43.98;97842.25;4498998;31;20119;-78
2022/06/09 07:12:06;;;;;;;9.77;4.25;;;;;;;28.02;43.63;97842.00;4499804;31;20172;-79
2022/06/09 07:14:33;;;;;;;9.88;4.40;;;;;;;28.16;43.21;97846.28;4485349;31;20134;-80
2022/06/09 07:16:59;;;;;;;10.50;4.50;;;;;;;28.21;42.88;97846.44;4501342;31;20123;-80
2022/06/09 07:19:25;;;;;;;12.00;4.82;;;;;;;28.26;42.70;97845.78;4487553;31;20429;-80
2022/06/09 07:21:50;;;;;;;10.25;3.95;;;;;;;28.28;42.85;97849.09;4500458;31;20111;-81
2022/06/09 07:24:16;;;;;;;10.60;4.72;;;;;;;28.53;42.18;97851.00;4501797;31;20092;-81
2022/06/09 07:26:41;;;;;;;11.52;4.47;;;;;;;28.37;42.48;97858.59;4501938;31;20099;-80
2022/06/09 07:29:07;;;;;;;11.48;5.22;;;;;;;28.28;42.59;97857.22;4501843;31;20084;-80
2022/06/09 07:31:32;;;;;;;11.73;4.82;;;;;;;28.12;42.95;97849.63;4487274;31;20099;-80
2022/06/09 07:33:58;;;;;;;13.50;5.50;;;;;;;28.01;43.26;97848.47;4503609;31;20401;-81
2022/06/09 07:36:25;;;;;;;10.25;4.57;;;;;;;27.92;43.69;97847.06;4503925;31;20083;-81
2022/06/09 07:38:51;;;;;;;9.90;4.72;;;;;;;27.80;43.94;97845.03;4503761;31;20076;-80
2022/06/09 07:41:19;;;;;;;10.05;3.97;;;;;;;27.71;44.06;97840.09;4489773;31;20107;-81
2022/06/09 07:43:45;;;;;;;11.23;5.15;;;;;;;27.62;44.53;97843.06;4504118;31;20138;-81
2022/06/09 07:46:11;;;;;;;12.75;5.15;;;;;;;27.49;45.11;97853.09;4504143;31;20177;-82
2022/06/09 07:48:37;;;;;;;10.85;5.28;;;;;;;27.37;46.65;97850.22;4503788;31;20084;-82
2022/06/09 07:51:03;;;;;;;11.73;5.18;;;;;;;27.21;48.12;97856.91;4503661;31;20112;-81
2022/06/09 07:53:28;;;;;;;12.70;5.20;;;;;;;27.03;49.02;97857.59;4503743;31;20099;-81
2022/06/09 07:55:54;;;;;;;13.02;5.03;;;;;;;26.97;49.22;97843.06;4503809;31;20122;-81
2022/06/09 07:58:19;;;;;;;12.25;5.40;;;;;;;26.95;49.92;97838.94;4503764;31;20163;-81
2022/06/09 08:00:45;;;;;;;14.25;5.53;;;;;;;26.98;49.05;97842.00;4503796;31;20119;-81
2022/06/09 08:03:22;;;;;;;11.65;5.68;;;;;;;27.08;50.64;97852.37;4503709;31;20441;-81
2022/06/09 08:05:48;;;;;;;12.50;5.40;;;;;;;27.49;49.86;97848.53;4489622;31;20108;-81
2022/06/09 08:08:13;;;;;;;11.38;5.10;;;;;;;27.90;49.32;97850.00;4503622;31;20084;-81
2022/06/09 08:10:39;;;;;;;10.52;5.07;;;;;;;28.46;49.03;97847.50;4503529;31;20133;-81
2022/06/09 08:13:05;;;;;;;11.90;4.65;;;;;;;28.67;47.35;97849.84;4489217;31;20100;-81
2022/06/09 08:15:31;;;;;;;10.02;4.57;;;;;;;28.95;45.31;97852.03;4489340;31;20123;-81
2022/06/09 08:17:58;;;;;;;9.98;4.30;;;;;;;29.15;43.82;97856.47;4489197;31;20155;-80
2022/06/09 08:20:26;;;;;;;10.05;4.20;;;;;;;29.33;43.14;97844.78;4503588;31;20583;-80
2022/06/09 08:22:52;;;;;;;11.00;4.68;;;;;;;29.50;42.81;97845.00;4503582;31;20100;-80
2022/06/09 08:25:19;;;;;;;10.23;5.10;;;;;;;29.68;43.91;97847.66;4489198;31;20404;-80
2022/06/09 08:27:47;;;;;;;11.50;5.10;;;;;;;29.85;44.05;97839.72;4503650;31;20156;-80
2022/06/09 08:30:14;;;;;;;10.32;4.72;;;;;;;30.08;41.62;97838.97;4503432;31;20493;-80
2022/06/09 08:32:40;;;;;;;10.43;4.65;;;;;;;30.15;40.49;97833.41;4489190;31;20119;-81
2022/06/09 08:35:09;;;;;;;12.02;4.40;;;;;;;30.16;42.93;97838.63;4489176;31;20097;-80
2022/06/09 08:37:34;;;;;;;11.90;5.18;;;;;;;30.03;39.23;97843.44;4489255;31;20211;-81
2022/06/09 08:40:00;;;;;;;9.73;4.40;;;;;;;30.07;39.98;97839.19;4489070;31;20080;-80
2022/06/09 08:42:44;;;;;;;9.30;4.07;;;;;;;30.02;40.66;97837.19;4503492;31;20103;-81
2022/06/09 08:45:12;;;;;;;8.57;3.70;;;;;;;30.08;42.08;97836.25;4503591;31;20084;-80
2022/06/09 08:47:46;;;;;;;8.25;3.40;;;;;;;30.31;40.94;97840.06;4489099;31;20088;-80
2022/06/09 08:50:17;;;;;;;9.70;4.22;;;;;;;30.49;42.03;97837.28;4488988;31;20470;-81
2022/06/09 08:52:53;;;;;;;11.85;5.15;;;;;;;30.49;38.69;97840.00;4503461;31;20191;-81
2022/06/09 08:55:31;;;;;;;9.63;4.87;;;;;;;30.50;38.18;97829.94;4503425;31;20104;-80
2022/06/09 08:58:01;;;;;;;10.23;5.18;;;;;;;30.36;38.63;97824.72;4489257;31;20424;-81
2022/06/09 09:00:32;;;;;;;11.45;5.43;;;;;;;30.41;39.33;97828.66;4489184;31;20076;-81
2022/06/09 09:03:04;;;;;;;11.00;5.30;;;;;;;30.32;39.09;97822.72;4488988;31;20104;-80
2022/06/09 09:05:42;;;;;;;9.88;4.72;;;;;;;30.22;39.13;97827.88;4489009;31;20494;-80
2022/06/09 09:08:09;;;;;;;10.00;4.93;;;;;;;30.28;40.33;97824.22;4488921;31;20085;-81
2022/06/09 09:10:40;;;;;;;11.32;5.90;;;;;;;30.26;39.77;97810.06;4488779;31;20110;-81
2022/06/09 09:13:15;;;;;;;12.25;6.80;;;;;;;30.44;39.47;97815.41;4503064;31;20105;-80
2022/06/09 09:16:00;;;;;;;13.60;7.05;;;;;;;30.47;38.90;97812.22;4475952;31;20445;-81
2022/06/09 09:18:35;;;;;;;12.65;6.50;;;;;;;30.42;38.76;97811.28;4503177;31;20080;-81
2022/06/09 09:21:19;;;;;;;15.38;7.12;;;;;;;30.24;40.45;97809.47;4503193;31;20150;-81
2022/06/09 09:23:59;;;;;;;12.40;7.32;;;;;;;30.04;39.67;97813.31;4489094;31;20444;-81
2022/06/09 09:26:44;;;;;;;12.98;7.40;;;;;;;29.95;39.31;97804.69;4503112;31;20456;-81
2022/06/09 09:29:28;;;;;;;13.13;7.40;;;;;;;29.85;39.42;97804.44;4488726;31;20212;-80
2022/06/09 09:32:05;;;;;;;12.50;6.95;;;;;;;29.69;41.08;97805.87;4488732;31;20140;-81
2022/06/09 09:34:32;;;;;;;13.83;6.87;;;;;;;29.54;41.23;97809.00;4503179;31;20084;-81
2022/06/09 09:37:15;;;;;;;13.40;8.02;;;;;;;29.74;40.98;97811.47;4488796;31;20126;-81
2022/06/09 09:39:48;;;;;;;12.48;7.43;;;;;;;29.85;39.32;97806.31;4488747;31;20106;-80
2022/06/09 09:42:17;;;;;;;13.77;7.00;;;;;;;29.84;39.38;97801.94;4488650;31;20139;-81
2022/06/09 09:45:03;;;;;;;13.35;7.37;;;;;;;29.75;39.88;97815.84;4488566;31;20107;-81
2022/06/09 09:47:30;;;;;;;12.52;6.70;;;;;;;29.65;40.12;97798.41;4502999;31;20076;-81
2022/06/09 09:50:04;;;;;;;14.13;5.97;;;;;;;29.55;40.00;97802.53;4488880;31;20084;-81
2022/06/09 09:52:44;;;;;;;11.73;5.55;;;;;;;29.58;39.49;97801.25;4489139;31;20424;-80
2022/06/09 09:55:27;;;;;;;10.00;4.55;;;;;;;29.31;39.60;97804.31;4487975;31;20130;-81
2022/06/09 09:58:20;;;;;;;12.00;5.30;;;;;;;29.25;40.38;97801.69;4502944;31;20159;-81
2022/06/09 10:00:49;;;;;;;11.10;5.32;;;;;;;29.34;40.53;97805.72;4502874;31;20076;-80
2022/06/09 10:09:32;;;;;;;10.30;4.47;;;;;;;29.51;40.40;97795.88;4490710;31;20155;-81
2022/06/09 10:12:02;;;;;;;11.07;5.22;;;;;;;29.76;39.83;97789.53;4493239;31;20076;-80
2022/06/09 10:14:49;;;;;;;11.40;5.40;;;;;;;29.73;38.92;97787.28;4488357;31;20103;-80
2022/06/09 10:17:35;;;;;;;11.43;5.68;;;;;;;29.92;39.42;97778.00;4488673;31;20092;-81
2022/06/09 10:20:07;;;;;;;10.30;5.40;;;;;;;29.98;38.06;97782.50;4488262;31;20091;-81
2022/06/09 10:22:35;;;;;;;10.30;5.22;;;;;;;30.07;38.54;97774.81;4502745;31;20113;-81
2022/06/09 10:25:38;;;;;;;10.88;5.62;;;;;;;29.98;38.17;97771.62;4488305;31;20185;-81
2022/06/09 10:28:24;;;;;;;10.10;5.43;;;;;;;30.17;37.58;97776.97;4437945;32;20121;-80
2022/06/09 10:30:54;;;;;;;11.57;5.20;;;;;;;30.33;38.24;97772.78;4438082;32;20457;-81
2022/06/09 10:33:27;;;;;;;11.18;5.62;;;;;;;30.34;37.69;97769.78;4425346;32;20076;-81
2022/06/09 10:35:56;;;;;;;10.63;4.85;;;;;;;30.26;37.70;97772.84;4437895;32;20120;-80
2022/06/09 10:38:37;;;;;;;11.02;4.80;;;;;;;30.25;37.29;97773.91;4437755;32;20110;-81
2022/06/09 10:41:09;;;;;;;8.95;4.20;;;;;;;30.24;37.91;97777.69;4425039;32;20121;-81
2022/06/09 10:43:39;;;;;;;9.55;4.43;;;;;;;30.28;38.76;97770.72;4425310;32;20424;-81
2022/06/09 10:46:19;;;;;;;10.70;4.60;;;;;;;30.40;38.24;97773.47;4412236;32;20148;-81
2022/06/09 10:57:59;;;;;;;9.60;4.80;;;;;;;30.99;36.48;97751.66;4437656;32;20104;-81
2022/06/09 11:00:40;;;;;;;10.10;4.50;;;;;;;30.87;36.38;97743.50;4437573;32;20117;-81
2022/06/09 11:03:14;;;;;;;9.35;3.95;;;;;;;30.68;36.51;97742.03;4441637;31;20088;-81
2022/06/09 11:05:52;;;;;;;9.18;4.22;;;;;;;30.28;36.89;97742.72;4502253;31;20076;-81
2022/06/09 11:08:24;;;;;;;;;;;;;;;29.94;37.23;97748.72;4490263;31;20379;-81
2022/06/09 11:10:56;;;;;;;9.10;3.80;;;;;;;29.84;37.50;97753.88;4489746;31;19983;-81
2022/06/09 11:13:52;;;;;;;8.68;3.78;;;;;;;29.69;37.74;97740.75;4504054;31;20100;-81
2022/06/09 11:16:29;;;;;;;11.95;5.85;;;;;;;29.82;36.75;97733.47;4504155;31;20106;-81
2022/06/09 11:19:13;;;;;;;10.80;3.25;;;;;;;29.76;37.68;97738.75;4489847;31;20080;-80
2022/06/09 11:21:47;;;;;;;7.47;3.17;;;;;;;29.69;36.13;97726.31;4504055;31;20407;-81
2022/06/09 11:24:13;;;;;;;6.72;3.08;;;;;;;29.93;36.36;97722.63;4489925;31;20108;-81
2022/06/09 11:26:52;;;;;;;8.70;3.40;;;;;;;29.93;35.88;97722.63;4504064;31;20086;-81
2022/06/09 11:29:42;;;;;;;8.82;3.60;;;;;;;30.08;36.54;97715.91;4489757;31;20092;-81
2022/06/09 11:32:31;;;;;;;8.05;3.62;;;;;;;30.18;35.85;97702.56;4503996;31;20436;-81
2022/06/09 11:34:59;;;;;;;6.97;3.28;;;;;;;30.44;35.26;97698.53;4504108;31;20088;-81
2022/06/09 11:37:27;;;;;;;7.87;3.33;;;;;;;30.64;35.26;97691.91;4504055;31;20179;-81
2022/06/09 11:40:23;;;;;;;8.75;3.70;;;;;;;30.74;34.09;97698.38;4503889;31;20100;-81
2022/06/09 11:42:55;;;;;;;8.75;3.58;;;;;;;30.71;34.33;97696.16;4504011;31;20088;-81
2022/06/09 11:45:23;;;;;;;8.20;3.55;;;;;;;30.60;34.37;97685.28;4503877;31;20160;-81
2022/06/09 11:47:50;;;;;;;8.95;3.67;;;;;;;30.35;34.57;97676.34;4503829;31;20114;-81
2022/06/09 11:50:18;;;;;;;7.50;3.50;;;;;;;30.07;36.83;97682.47;4489504;31;20139;-81
2022/06/09 11:52:49;;;;;;;10.27;4.20;;;;;;;29.79;37.56;97699.47;4503848;31;20239;-81
2022/06/09 11:55:23;;;;;;;11.43;4.60;;;;;;;29.18;42.48;97723.09;4489657;31;20130;-82
2022/06/09 11:57:50;;;;;;;9.80;4.20;;;;;;;28.18;46.65;97726.88;4503718;31;20514;-81